Georg Jacob — A8XG5 — position and weather

sailwx.info

Track history (hours):
 
Tides and Currents Weather Stations Pressure Air Temp Water Temp Dewpoint Dewpoint Depression Visibility Wind Speed Wind Dir Waves Ship Positions

Georg Jacob

Last reported at 2017-Oct-28 18:01 UTC. Time now 2017-Nov-18 23:30 UTC.
Position N 14°11' W 022°33'.
Warning: this ship's position is 21 days out of date.

Length 229 m; draft 11.5 m.

Type: Ship (hazmat cat A). MMSI: 636092136.

Date/timePositionNaut miles runAvg speedWind from/ knotsBaromVisibWave heightAir tempDewpointWater temp
2017-Oct-28 18:01N 14°11' W 022°33'013.5
2017-Oct-28 17:59N 14°11' W 022°33'713.1
2017-Oct-28 17:29N 14°17' W 022°30'613.1
2017-Oct-28 17:00N 14°23' W 022°28'713.2
2017-Oct-28 16:28N 14°30' W 022°25'813.3
2017-Oct-28 15:50N 14°38' W 022°22'413.1
2017-Oct-28 15:30N 14°42' W 022°20'18113.2
2017-Oct-28 01:45N 17°29' W 021°08'1213.1
2017-Oct-28 00:49N 17°40' W 021°03'412.9
2017-Oct-28 00:29N 17°44' W 021°01'1913.2
2017-Oct-27 23:01N 18°02' W 020°53'113.2
2017-Oct-27 22:55N 18°03' W 020°53'613.3
2017-Oct-27 22:29N 18°08' W 020°51'4013.4
2017-Oct-27 19:30N 18°45' W 020°35'713.1
2017-Oct-27 19:00N 18°51' W 020°32'2613.0
2017-Oct-27 17:01N 19°15' W 020°21'012.7
2017-Oct-27 16:59N 19°16' W 020°21'713.1
2017-Oct-27 16:29N 19°22' W 020°19'1813.0
2017-Oct-27 15:08N 19°38' W 020°11'413.1
2017-Oct-27 14:51N 19°42' W 020°10'5113.1
2017-Oct-27 10:56N 20°29' W 019°49'712.9
2017-Oct-27 10:25N 20°35' W 019°46'712.9
2017-Oct-27 09:53N 20°41' W 019°43'612.6
2017-Oct-27 09:26N 20°47' W 019°41'3812.9
2017-Oct-27 06:27N 21°22' W 019°25'612.7
2017-Oct-27 06:00N 21°27' W 019°23'612.6
2017-Oct-27 05:30N 21°33' W 019°20'712.6
2017-Oct-27 04:59N 21°39' W 019°17'612.8
2017-Oct-27 04:30N 21°45' W 019°15'612.8
2017-Oct-27 04:00N 21°51' W 019°12'712.6
2017-Oct-27 03:29N 21°57' W 019°09'24313.2
2017-Oct-26 09:08N 25°40' W 017°26'312.9
2017-Oct-26 08:53N 25°43' W 017°24'3613.0
2017-Oct-26 06:07N 26°16' W 017°09'412.8
2017-Oct-26 05:48N 26°20' W 017°07'9512.2
2017-Oct-25 22:03N 27°47' W 016°25'2813.4
2017-Oct-25 19:56N 28°12' W 016°10'613.6
2017-Oct-25 19:30N 28°16' W 016°05'713.5
2017-Oct-25 19:00N 28°21' W 016°00'612.9
2017-Oct-25 18:30N 28°26' W 015°56'612.6
2017-Oct-25 18:00N 28°31' W 015°51'612.8
2017-Oct-25 17:30N 28°36' W 015°47'612.8
2017-Oct-25 17:01N 28°41' W 015°43'612.9
2017-Oct-25 16:30N 28°47' W 015°39'612.8
2017-Oct-25 16:00N 28°53' W 015°35'612.7
2017-Oct-25 15:31N 28°58' W 015°32'612.8
2017-Oct-25 15:00N 29°04' W 015°28'612.7
2017-Oct-25 14:31N 29°09' W 015°24'612.7
2017-Oct-25 14:01N 29°15' W 015°21'612.8
2017-Oct-25 13:30N 29°20' W 015°17'612.8
2017-Oct-25 13:00N 29°26' W 015°13'712.9
2017-Oct-25 12:30N 29°31' W 015°10'713.0
2017-Oct-25 12:00N 29°37' W 015°06'713.1
2017-Oct-25 11:30N 29°43' W 015°02'713.2
2017-Oct-25 11:00N 29°49' W 014°58'713.0
2017-Oct-25 10:30N 29°54' W 014°55'613.0
2017-Oct-25 10:00N 29°60' W 014°51'612.9
2017-Oct-25 09:30N 30°05' W 014°47'713.1
2017-Oct-25 09:00N 30°11' W 014°44'613.0
2017-Oct-25 08:30N 30°17' W 014°40'713.1
2017-Oct-25 08:00N 30°22' W 014°36'713.4
2017-Oct-25 07:30N 30°28' W 014°32'713.5
2017-Oct-25 07:00N 30°34' W 014°28'713.2
2017-Oct-25 06:30N 30°40' W 014°25'913.2
2017-Oct-25 05:52N 30°47' W 014°20'2113.2
2017-Oct-25 04:14N 31°06' W 014°08'513.1
2017-Oct-25 03:52N 31°10' W 014°05'613.2
2017-Oct-25 03:24N 31°15' W 014°01'513.2
2017-Oct-25 02:59N 31°20' W 013°58'613.0
2017-Oct-25 02:30N 31°25' W 013°54'613.2
2017-Oct-25 02:01N 31°31' W 013°50'813.3
2017-Oct-25 01:22N 31°37' W 013°43'513.4
2017-Oct-25 01:01N 31°39' W 013°38'713.2
2017-Oct-25 00:31N 31°43' W 013°31'813.2
2017-Oct-24 23:53N 31°48' W 013°24'813.3
2017-Oct-24 23:17N 31°52' W 013°16'413.5
2017-Oct-24 22:57N 31°55' W 013°12'713.5
2017-Oct-24 22:26N 31°59' W 013°05'12813.2
2017-Oct-24 12:46N 33°12' W 011°00'1012.9
2017-Oct-24 11:58N 33°19' W 010°50'612.6
2017-Oct-24 11:27N 33°22' W 010°44'612.6
2017-Oct-24 10:59N 33°26' W 010°38'612.3
2017-Oct-24 10:30N 33°29' W 010°33'612.3
2017-Oct-24 10:00N 33°33' W 010°26'612.4
2017-Oct-24 09:30N 33°36' W 010°20'712.7
2017-Oct-24 08:57N 33°40' W 010°14'612.7
2017-Oct-24 08:30N 33°43' W 010°08'612.9
2017-Oct-24 08:00N 33°47' W 010°02'612.9
2017-Oct-24 07:30N 33°51' W 009°55'1613.1
2017-Oct-24 06:17N 33°60' W 009°39'413.2
2017-Oct-24 06:00N 34°02' W 009°36'1813.1
2017-Oct-24 04:39N 34°13' W 009°19'613.6
2017-Oct-24 04:11N 34°16' W 009°12'813.6
2017-Oct-24 03:33N 34°21' W 009°04'413.4
2017-Oct-24 03:15N 34°23' W 008°60'413.4
2017-Oct-24 02:56N 34°26' W 008°55'713.2
2017-Oct-24 02:23N 34°30' W 008°48'3413.3
2017-Oct-23 23:52N 34°49' W 008°15'513.6
2017-Oct-23 23:30N 34°52' W 008°10'713.5
2017-Oct-23 23:00N 34°55' W 008°03'149 5.8
2017-Oct-22 21:20N 36°05' W 005°22'2 5.0
2017-Oct-22 21:01N 36°05' W 005°20'2 4.2
2017-Oct-22 20:30N 36°05' W 005°17'3 5.5
2017-Oct-22 20:00N 36°05' W 005°14'21812.7
2017-Oct-22 02:51N 36°31' W 000°45'613.2
2017-Oct-22 02:24N 36°33' W 000°38'4513.1
2017-Oct-21 22:58N 36°44' E 000°17'613.4
2017-Oct-21 22:29N 36°45' E 000°24'1313.4
2017-Oct-21 21:32N 36°47' E 000°40'013.7
2017-Oct-21 21:30N 36°47' E 000°41'713.3
2017-Oct-21 21:00N 36°48' E 000°49'713.2
2017-Oct-21 20:30N 36°50' E 000°57'713.3
2017-Oct-21 20:00N 36°51' E 001°05'713.3
2017-Oct-21 19:30N 36°53' E 001°13'613.0
2017-Oct-21 19:00N 36°55' E 001°21'612.9
2017-Oct-21 18:30N 36°56' E 001°29'713.3
2017-Oct-21 18:00N 36°57' E 001°37'813.2
2017-Oct-21 17:25N 36°59' E 001°46'513.0
2017-Oct-21 17:00N 37°00' E 001°53'712.9
2017-Oct-21 16:30N 37°02' E 002°01'49112.9
2017-Oct-20 02:34N 38°24' E 012°12'113.4
2017-Oct-20 02:30N 38°24' E 012°13'713.6
2017-Oct-20 02:00N 38°24' E 012°22'713.9
2017-Oct-20 01:30N 38°24' E 012°31'713.9
2017-Oct-20 01:00N 38°24' E 012°40'713.8
2017-Oct-20 00:30N 38°24' E 012°48'713.7
2017-Oct-20 00:00N 38°24' E 012°57'713.8
2017-Oct-19 23:30N 38°24' E 013°06'713.7
2017-Oct-19 23:00N 38°24' E 013°15'713.7
2017-Oct-19 22:30N 38°24' E 013°23'713.7
2017-Oct-19 22:00N 38°23' E 013°32'713.7
2017-Oct-19 21:30N 38°22' E 013°41'713.7
2017-Oct-19 21:00N 38°22' E 013°49'713.5
2017-Oct-19 20:30N 38°21' E 013°58'713.6
2017-Oct-19 20:00N 38°21' E 014°07'713.9
2017-Oct-19 19:30N 38°20' E 014°16'714.0
2017-Oct-19 19:00N 38°19' E 014°24'714.1
2017-Oct-19 18:30N 38°19' E 014°33'714.1
2017-Oct-19 18:00N 38°18' E 014°42'714.1
2017-Oct-19 17:30N 38°18' E 014°51'714.0
2017-Oct-19 17:00N 38°18' E 015°00'714.3
2017-Oct-19 16:30N 38°18' E 015°09'612.7
2017-Oct-19 16:00N 38°17' E 015°17'4 7.8
2017-Oct-19 15:30N 38°13' E 015°18'0 0.3
2017-Oct-19 14:58N 38°13' E 015°18'0 0.1
2017-Oct-19 14:28N 38°13' E 015°18'0 0.2
2017-Oct-19 13:58N 38°13' E 015°18'1 2.1
2017-Oct-19 13:30N 38°13' E 015°17'1 1.7
2017-Oct-19 12:55N 38°13' E 015°16'0 0.0
2017-Oct-19 12:25N 38°13' E 015°16'0 0.0
2017-Oct-19 11:55N 38°13' E 015°16'0 0.0
2017-Oct-19 11:25N 38°13' E 015°16'0 0.0
2017-Oct-19 10:55N 38°13' E 015°16'0 0.0
2017-Oct-19 10:25N 38°13' E 015°16'0 0.0
2017-Oct-19 09:55N 38°13' E 015°16'0 0.0
2017-Oct-19 09:25N 38°13' E 015°16'0 0.0
2017-Oct-19 08:55N 38°13' E 015°16'0 0.0
2017-Oct-19 08:25N 38°13' E 015°16'0 0.0
2017-Oct-19 07:55N 38°13' E 015°16'0 0.0
2017-Oct-19 07:25N 38°13' E 015°16'0 0.0
2017-Oct-19 06:55N 38°13' E 015°16'0 0.0
2017-Oct-19 06:25N 38°13' E 015°16'0 0.0
2017-Oct-19 05:55N 38°13' E 015°16'0 0.0
2017-Oct-19 05:25N 38°13' E 015°16'0 0.0
2017-Oct-19 03:25N 38°13' E 015°16'0 0.0
2017-Oct-19 01:49N 38°13' E 015°16'0 0.0
2017-Oct-19 01:13N 38°13' E 015°16'0 0.0
2017-Oct-19 00:55N 38°13' E 015°16'0 0.0
2017-Oct-19 00:25N 38°13' E 015°16'0 0.0
2017-Oct-18 23:55N 38°13' E 015°16'0 0.0
2017-Oct-18 23:25N 38°13' E 015°16'0 0.0
2017-Oct-18 21:37N 38°13' E 015°16'0 0.0
2017-Oct-18 21:13N 38°13' E 015°16'0 0.0
2017-Oct-18 20:49N 38°13' E 015°16'0 0.0
2017-Oct-18 20:19N 38°13' E 015°16'0 0.0
2017-Oct-18 18:19N 38°13' E 015°16'  
Track history (hours):
 
Tides and Currents Weather Stations Pressure Air Temp Water Temp Dewpoint Dewpoint Depression Visibility Wind Speed Wind Dir Waves Ship Positions

Georg Jacob

Last reported at 2017-Oct-28 18:01 UTC. Time now 2017-Nov-18 23:30 UTC.
Position N 14°11' W 022°33'.
Warning: this ship's position is 21 days out of date.

Length 229 m; draft 11.5 m.

Type: Ship (hazmat cat A). MMSI: 636092136.

Date/timePositionNaut miles runAvg speedWind from/ knotsBaromVisibWave heightAir tempDewpointWater temp
2017-Oct-28 18:01N 14°11' W 022°33'013.5
2017-Oct-28 17:59N 14°11' W 022°33'713.1
2017-Oct-28 17:29N 14°17' W 022°30'613.1
2017-Oct-28 17:00N 14°23' W 022°28'713.2
2017-Oct-28 16:28N 14°30' W 022°25'813.3
2017-Oct-28 15:50N 14°38' W 022°22'413.1
2017-Oct-28 15:30N 14°42' W 022°20'18113.2
2017-Oct-28 01:45N 17°29' W 021°08'1213.1
2017-Oct-28 00:49N 17°40' W 021°03'412.9
2017-Oct-28 00:29N 17°44' W 021°01'1913.2
2017-Oct-27 23:01N 18°02' W 020°53'113.2
2017-Oct-27 22:55N 18°03' W 020°53'613.3
2017-Oct-27 22:29N 18°08' W 020°51'4013.4
2017-Oct-27 19:30N 18°45' W 020°35'713.1
2017-Oct-27 19:00N 18°51' W 020°32'2613.0
2017-Oct-27 17:01N 19°15' W 020°21'012.7
2017-Oct-27 16:59N 19°16' W 020°21'713.1
2017-Oct-27 16:29N 19°22' W 020°19'1813.0
2017-Oct-27 15:08N 19°38' W 020°11'413.1
2017-Oct-27 14:51N 19°42' W 020°10'5113.1
2017-Oct-27 10:56N 20°29' W 019°49'712.9
2017-Oct-27 10:25N 20°35' W 019°46'712.9
2017-Oct-27 09:53N 20°41' W 019°43'612.6
2017-Oct-27 09:26N 20°47' W 019°41'3812.9
2017-Oct-27 06:27N 21°22' W 019°25'612.7
2017-Oct-27 06:00N 21°27' W 019°23'612.6
2017-Oct-27 05:30N 21°33' W 019°20'712.6
2017-Oct-27 04:59N 21°39' W 019°17'612.8
2017-Oct-27 04:30N 21°45' W 019°15'612.8
2017-Oct-27 04:00N 21°51' W 019°12'712.6
2017-Oct-27 03:29N 21°57' W 019°09'24313.2
2017-Oct-26 09:08N 25°40' W 017°26'312.9
2017-Oct-26 08:53N 25°43' W 017°24'3613.0
2017-Oct-26 06:07N 26°16' W 017°09'412.8
2017-Oct-26 05:48N 26°20' W 017°07'9512.2
2017-Oct-25 22:03N 27°47' W 016°25'2813.4
2017-Oct-25 19:56N 28°12' W 016°10'613.6
2017-Oct-25 19:30N 28°16' W 016°05'713.5
2017-Oct-25 19:00N 28°21' W 016°00'612.9
2017-Oct-25 18:30N 28°26' W 015°56'612.6
2017-Oct-25 18:00N 28°31' W 015°51'612.8
2017-Oct-25 17:30N 28°36' W 015°47'612.8
2017-Oct-25 17:01N 28°41' W 015°43'612.9
2017-Oct-25 16:30N 28°47' W 015°39'612.8
2017-Oct-25 16:00N 28°53' W 015°35'612.7
2017-Oct-25 15:31N 28°58' W 015°32'612.8
2017-Oct-25 15:00N 29°04' W 015°28'612.7
2017-Oct-25 14:31N 29°09' W 015°24'612.7
2017-Oct-25 14:01N 29°15' W 015°21'612.8
2017-Oct-25 13:30N 29°20' W 015°17'612.8
2017-Oct-25 13:00N 29°26' W 015°13'712.9
2017-Oct-25 12:30N 29°31' W 015°10'713.0
2017-Oct-25 12:00N 29°37' W 015°06'713.1
2017-Oct-25 11:30N 29°43' W 015°02'713.2
2017-Oct-25 11:00N 29°49' W 014°58'713.0
2017-Oct-25 10:30N 29°54' W 014°55'613.0
2017-Oct-25 10:00N 29°60' W 014°51'612.9
2017-Oct-25 09:30N 30°05' W 014°47'713.1
2017-Oct-25 09:00N 30°11' W 014°44'613.0
2017-Oct-25 08:30N 30°17' W 014°40'713.1
2017-Oct-25 08:00N 30°22' W 014°36'713.4
2017-Oct-25 07:30N 30°28' W 014°32'713.5
2017-Oct-25 07:00N 30°34' W 014°28'713.2
2017-Oct-25 06:30N 30°40' W 014°25'913.2
2017-Oct-25 05:52N 30°47' W 014°20'2113.2
2017-Oct-25 04:14N 31°06' W 014°08'513.1
2017-Oct-25 03:52N 31°10' W 014°05'613.2
2017-Oct-25 03:24N 31°15' W 014°01'513.2
2017-Oct-25 02:59N 31°20' W 013°58'613.0
2017-Oct-25 02:30N 31°25' W 013°54'613.2
2017-Oct-25 02:01N 31°31' W 013°50'813.3
2017-Oct-25 01:22N 31°37' W 013°43'513.4
2017-Oct-25 01:01N 31°39' W 013°38'713.2
2017-Oct-25 00:31N 31°43' W 013°31'813.2
2017-Oct-24 23:53N 31°48' W 013°24'813.3
2017-Oct-24 23:17N 31°52' W 013°16'413.5
2017-Oct-24 22:57N 31°55' W 013°12'713.5
2017-Oct-24 22:26N 31°59' W 013°05'12813.2
2017-Oct-24 12:46N 33°12' W 011°00'1012.9
2017-Oct-24 11:58N 33°19' W 010°50'612.6
2017-Oct-24 11:27N 33°22' W 010°44'612.6
2017-Oct-24 10:59N 33°26' W 010°38'612.3
2017-Oct-24 10:30N 33°29' W 010°33'612.3
2017-Oct-24 10:00N 33°33' W 010°26'612.4
2017-Oct-24 09:30N 33°36' W 010°20'712.7
2017-Oct-24 08:57N 33°40' W 010°14'612.7
2017-Oct-24 08:30N 33°43' W 010°08'612.9
2017-Oct-24 08:00N 33°47' W 010°02'612.9
2017-Oct-24 07:30N 33°51' W 009°55'1613.1
2017-Oct-24 06:17N 33°60' W 009°39'413.2
2017-Oct-24 06:00N 34°02' W 009°36'1813.1
2017-Oct-24 04:39N 34°13' W 009°19'613.6
2017-Oct-24 04:11N 34°16' W 009°12'813.6
2017-Oct-24 03:33N 34°21' W 009°04'413.4
2017-Oct-24 03:15N 34°23' W 008°60'413.4
2017-Oct-24 02:56N 34°26' W 008°55'713.2
2017-Oct-24 02:23N 34°30' W 008°48'3413.3
2017-Oct-23 23:52N 34°49' W 008°15'513.6
2017-Oct-23 23:30N 34°52' W 008°10'713.5
2017-Oct-23 23:00N 34°55' W 008°03'149 5.8
2017-Oct-22 21:20N 36°05' W 005°22'2 5.0
2017-Oct-22 21:01N 36°05' W 005°20'2 4.2
2017-Oct-22 20:30N 36°05' W 005°17'3 5.5
2017-Oct-22 20:00N 36°05' W 005°14'21812.7
2017-Oct-22 02:51N 36°31' W 000°45'613.2
2017-Oct-22 02:24N 36°33' W 000°38'4513.1
2017-Oct-21 22:58N 36°44' E 000°17'613.4
2017-Oct-21 22:29N 36°45' E 000°24'1313.4
2017-Oct-21 21:32N 36°47' E 000°40'013.7
2017-Oct-21 21:30N 36°47' E 000°41'713.3
2017-Oct-21 21:00N 36°48' E 000°49'713.2
2017-Oct-21 20:30N 36°50' E 000°57'713.3
2017-Oct-21 20:00N 36°51' E 001°05'713.3
2017-Oct-21 19:30N 36°53' E 001°13'613.0
2017-Oct-21 19:00N 36°55' E 001°21'612.9
2017-Oct-21 18:30N 36°56' E 001°29'713.3
2017-Oct-21 18:00N 36°57' E 001°37'813.2
2017-Oct-21 17:25N 36°59' E 001°46'513.0
2017-Oct-21 17:00N 37°00' E 001°53'712.9
2017-Oct-21 16:30N 37°02' E 002°01'49112.9
2017-Oct-20 02:34N 38°24' E 012°12'113.4
2017-Oct-20 02:30N 38°24' E 012°13'713.6
2017-Oct-20 02:00N 38°24' E 012°22'713.9
2017-Oct-20 01:30N 38°24' E 012°31'713.9
2017-Oct-20 01:00N 38°24' E 012°40'713.8
2017-Oct-20 00:30N 38°24' E 012°48'713.7
2017-Oct-20 00:00N 38°24' E 012°57'713.8
2017-Oct-19 23:30N 38°24' E 013°06'713.7
2017-Oct-19 23:00N 38°24' E 013°15'713.7
2017-Oct-19 22:30N 38°24' E 013°23'713.7
2017-Oct-19 22:00N 38°23' E 013°32'713.7
2017-Oct-19 21:30N 38°22' E 013°41'713.7
2017-Oct-19 21:00N 38°22' E 013°49'713.5
2017-Oct-19 20:30N 38°21' E 013°58'713.6
2017-Oct-19 20:00N 38°21' E 014°07'713.9
2017-Oct-19 19:30N 38°20' E 014°16'714.0
2017-Oct-19 19:00N 38°19' E 014°24'714.1
2017-Oct-19 18:30N 38°19' E 014°33'714.1
2017-Oct-19 18:00N 38°18' E 014°42'714.1
2017-Oct-19 17:30N 38°18' E 014°51'714.0
2017-Oct-19 17:00N 38°18' E 015°00'714.3
2017-Oct-19 16:30N 38°18' E 015°09'612.7
2017-Oct-19 16:00N 38°17' E 015°17'4 7.8
2017-Oct-19 15:30N 38°13' E 015°18'0 0.3
2017-Oct-19 14:58N 38°13' E 015°18'0 0.1
2017-Oct-19 14:28N 38°13' E 015°18'0 0.2
2017-Oct-19 13:58N 38°13' E 015°18'1 2.1
2017-Oct-19 13:30N 38°13' E 015°17'1 1.7
2017-Oct-19 12:55N 38°13' E 015°16'0 0.0
2017-Oct-19 12:25N 38°13' E 015°16'0 0.0
2017-Oct-19 11:55N 38°13' E 015°16'0 0.0
2017-Oct-19 11:25N 38°13' E 015°16'0 0.0
2017-Oct-19 10:55N 38°13' E 015°16'0 0.0
2017-Oct-19 10:25N 38°13' E 015°16'0 0.0
2017-Oct-19 09:55N 38°13' E 015°16'0 0.0
2017-Oct-19 09:25N 38°13' E 015°16'0 0.0
2017-Oct-19 08:55N 38°13' E 015°16'0 0.0
2017-Oct-19 08:25N 38°13' E 015°16'0 0.0
2017-Oct-19 07:55N 38°13' E 015°16'0 0.0
2017-Oct-19 07:25N 38°13' E 015°16'0 0.0
2017-Oct-19 06:55N 38°13' E 015°16'0 0.0
2017-Oct-19 06:25N 38°13' E 015°16'0 0.0
2017-Oct-19 05:55N 38°13' E 015°16'0 0.0
2017-Oct-19 05:25N 38°13' E 015°16'0 0.0
2017-Oct-19 03:25N 38°13' E 015°16'0 0.0
2017-Oct-19 01:49N 38°13' E 015°16'0 0.0
2017-Oct-19 01:13N 38°13' E 015°16'0 0.0
2017-Oct-19 00:55N 38°13' E 015°16'0 0.0
2017-Oct-19 00:25N 38°13' E 015°16'0 0.0
2017-Oct-18 23:55N 38°13' E 015°16'0 0.0
2017-Oct-18 23:25N 38°13' E 015°16'0 0.0
2017-Oct-18 21:37N 38°13' E 015°16'0 0.0
2017-Oct-18 21:13N 38°13' E 015°16'0 0.0
2017-Oct-18 20:49N 38°13' E 015°16'0 0.0
2017-Oct-18 20:19N 38°13' E 015°16'0 0.0
2017-Oct-18 18:19N 38°13' E 015°16'  

Dump ship's entire track history